createdAt,value
2019-04-06T00:05:03.620Z,23.3
2019-04-06T00:20:03.869Z,23.3
2019-04-06T00:35:02.649Z,23.2
2019-04-06T00:50:04.431Z,23.2
2019-04-06T01:05:03.747Z,23.2
2019-04-06T01:20:05.332Z,23.2
2019-04-06T01:35:03.434Z,23.1
2019-04-06T01:50:04.061Z,23
2019-04-06T02:05:03.640Z,23
2019-04-06T02:20:03.833Z,22.9
2019-04-06T02:35:02.966Z,22.9
2019-04-06T02:50:03.675Z,22.9
2019-04-06T03:05:10.114Z,22.9
2019-04-06T03:20:03.734Z,22.9
2019-04-06T03:35:04.472Z,22.9
2019-04-06T03:50:05.377Z,22.9
2019-04-06T04:05:04.129Z,22.9
2019-04-06T04:20:04.051Z,22.9
2019-04-06T04:35:04.087Z,22.9
2019-04-06T04:50:04.028Z,22.9
2019-04-06T05:05:05.637Z,22.9
2019-04-06T05:20:06.853Z,22.9
2019-04-06T05:35:04.089Z,22.9
2019-04-06T05:50:04.685Z,22.9
2019-04-06T06:05:04.892Z,22.9
2019-04-06T06:20:03.243Z,22.9
2019-04-06T06:35:04.129Z,23
2019-04-06T06:50:03.828Z,23
2019-04-06T07:05:05.644Z,23
2019-04-06T07:20:04.882Z,23.1
2019-04-06T07:35:03.925Z,23.1
2019-04-06T07:50:04.053Z,23.1
2019-04-06T08:05:03.851Z,23.1
2019-04-06T08:20:04.083Z,23.2
2019-04-06T08:35:03.640Z,23.2
2019-04-06T08:50:07.154Z,23.3
2019-04-06T09:05:05.001Z,23.4
2019-04-06T09:20:04.096Z,23.5
2019-04-06T09:35:04.335Z,23.6
2019-04-06T09:50:04.688Z,23.6
2019-04-06T10:05:03.351Z,23.6
2019-04-06T10:20:04.299Z,23.7
2019-04-06T10:35:05.034Z,23.7
2019-04-06T10:50:03.158Z,23.7
2019-04-06T11:05:04.550Z,23.7
2019-04-06T11:20:07.371Z,23.7
2019-04-06T11:35:04.166Z,23.7
2019-04-06T11:50:03.742Z,23.7
2019-04-06T12:05:06.660Z,23.7
2019-04-06T12:20:04.391Z,23.7
2019-04-06T12:35:04.151Z,23.7
2019-04-06T12:50:03.860Z,23.8
2019-04-06T13:05:03.220Z,23.8
2019-04-06T13:20:03.808Z,23.9
2019-04-06T13:35:05.759Z,23.9
2019-04-06T13:50:06.988Z,24.1
2019-04-06T14:05:04.043Z,24.1
2019-04-06T14:20:06.229Z,24.2
2019-04-06T14:35:03.813Z,24.2
2019-04-06T14:50:04.813Z,24.3
2019-04-06T15:05:05.696Z,24.3
2019-04-06T15:20:04.989Z,24.3
2019-04-06T15:35:04.081Z,24.3
2019-04-06T15:50:04.069Z,24.3
2019-04-06T16:05:05.745Z,24.3
2019-04-06T16:20:03.759Z,24.2
2019-04-06T16:35:05.371Z,24.1
2019-04-06T16:50:04.751Z,24.1
2019-04-06T17:05:04.804Z,24.1
2019-04-06T17:20:03.252Z,24
2019-04-06T17:35:03.754Z,23.9
2019-04-06T17:50:05.689Z,23.7
2019-04-06T18:05:04.418Z,23.6
2019-04-06T18:20:04.912Z,23.6
2019-04-06T18:35:02.960Z,23.4
2019-04-06T18:50:04.762Z,23.3
2019-04-06T19:05:03.877Z,23.1
2019-04-06T19:20:04.357Z,23.1
2019-04-06T19:35:04.080Z,22.9
2019-04-06T19:50:03.788Z,22.8
2019-04-06T20:05:05.686Z,22.7
2019-04-06T20:20:05.767Z,22.6
2019-04-06T20:35:05.202Z,22.6
2019-04-06T20:50:05.653Z,22.6
2019-04-06T21:05:04.889Z,22.6
2019-04-06T21:20:03.951Z,22.7
2019-04-06T21:35:04.576Z,22.8
2019-04-06T21:50:03.943Z,22.9
2019-04-06T22:05:04.884Z,23
2019-04-06T22:20:04.553Z,23
2019-04-06T22:35:04.442Z,23.1
2019-04-06T22:50:04.413Z,23.1
2019-04-06T23:05:03.967Z,23.1
2019-04-06T23:20:03.189Z,23.1
2019-04-06T23:35:03.608Z,23.2
2019-04-06T23:50:03.952Z,23.2
